Climatologie pour Saint-Brevin les Pins
Jour • Résumé pour février 8, 2017 Système :  Métrique    Anglais   Mixte
« - 1 jour
+ 1 jour »
Jour Semaine Mois Année Personnalisé
  Maximum : Minimum : Moyenne :
Température sous abri : 11.3 °C 0.7 °C 5.3 °C
Point de rosée : 7.4 °C 0.1 °C 3.7 °C
Humidité : 97 % 74 % 90 %
Vitesse du vent : 16.1 km/h 0.0 km/h 5.4 km/h
Rafale : 22.5 km/h - -
Direction :- - WNW
Pression : 1028.0 hPa 1021.2 hPa -
Précipitations : 0.3 mm    
Historical Graphs
 
 
Tableau de données pour février 8, 2017
Heure Tempé Pt rosée Pression Vent Vitesse Rafale Humidité Taux pluie (/hr) Soleil
00:00 4.4 °C 3.7 °C 1021.2 hPa WNW 4.8 km/h 12.9 km/h 95 % 0.0 mm 0 W/m2
00:10 4.3 °C 3.6 °C 1021.2 hPa NNW 3.2 km/h 14.5 km/h 95 % 0.0 mm 0 W/m2
00:15 4.4 °C 3.7 °C 1021.2 hPa NNW 11.3 km/h 16.1 km/h 95 % 0.0 mm 0 W/m2
00:20 4.3 °C 3.5 °C 1021.6 hPa NNW 4.8 km/h 16.1 km/h 95 % 0.0 mm 0 W/m2
00:30 4.4 °C 3.7 °C 1021.6 hPa NW 4.8 km/h 16.1 km/h 95 % 0.0 mm 0 W/m2
00:35 4.3 °C 3.6 °C 1021.6 hPa NW 3.2 km/h 9.7 km/h 95 % 0.0 mm 0 W/m2
00:40 4.2 °C 3.5 °C 1021.6 hPa NNW 3.2 km/h 9.7 km/h 95 % 0.0 mm 0 W/m2
00:45 4.2 °C 3.5 °C 1021.9 hPa NW 4.8 km/h 9.7 km/h 95 % 0.0 mm 0 W/m2
00:50 4.1 °C 3.4 °C 1021.9 hPa NW 4.8 km/h 9.7 km/h 95 % 0.0 mm 0 W/m2
00:55 4.2 °C 3.4 °C 1021.9 hPa NW 4.8 km/h 11.3 km/h 95 % 0.0 mm 0 W/m2
01:00 4.1 °C 3.4 °C 1021.9 hPa NW 3.2 km/h 12.9 km/h 95 % 0.0 mm 0 W/m2
01:05 4.2 °C 3.4 °C 1021.9 hPa NW 3.2 km/h 12.9 km/h 95 % 0.0 mm 0 W/m2
01:10 4.1 °C 3.3 °C 1022.2 hPa NNW 1.6 km/h 9.7 km/h 95 % 0.0 mm 0 W/m2
01:15 4.1 °C 3.3 °C 1021.9 hPa NW 4.8 km/h 14.5 km/h 95 % 0.0 mm 0 W/m2
01:20 4.1 °C 3.3 °C 1022.2 hPa NW 3.2 km/h 14.5 km/h 95 % 0.0 mm 0 W/m2
01:25 4.1 °C 3.3 °C 1022.2 hPa WNW 3.2 km/h 12.9 km/h 95 % 0.0 mm 0 W/m2
01:30 4.1 °C 3.3 °C 1022.2 hPa WNW 6.4 km/h 12.9 km/h 95 % 0.0 mm 0 W/m2
01:35 4.1 °C 3.3 °C 1022.2 hPa WNW 3.2 km/h 14.5 km/h 95 % 0.0 mm 0 W/m2
01:40 4.1 °C 3.3 °C 1022.2 hPa WNW 6.4 km/h 14.5 km/h 95 % 0.0 mm 0 W/m2
01:45 4.2 °C 3.4 °C 1022.2 hPa NNW 8.0 km/h 14.5 km/h 95 % 0.0 mm 0 W/m2
01:50 4.1 °C 3.4 °C 1022.2 hPa WNW 8.0 km/h 12.9 km/h 95 % 0.0 mm 0 W/m2
01:55 4.1 °C 3.4 °C 1022.2 hPa NW 6.4 km/h 12.9 km/h 95 % 0.0 mm 0 W/m2
02:00 4.1 °C 3.4 °C 1022.6 hPa WNW 9.7 km/h 12.9 km/h 95 % 0.0 mm 0 W/m2
02:05 4.2 °C 3.4 °C 1022.6 hPa NW 6.4 km/h 12.9 km/h 95 % 0.0 mm 0 W/m2
02:10 4.1 °C 3.4 °C 1022.6 hPa NW 4.8 km/h 12.9 km/h 95 % 0.0 mm 0 W/m2
02:15 4.2 °C 3.4 °C 1022.6 hPa North 8.0 km/h 12.9 km/h 95 % 0.0 mm 0 W/m2
02:20 4.2 °C 3.4 °C 1022.6 hPa NNW 4.8 km/h 12.9 km/h 95 % 0.0 mm 0 W/m2
02:25 4.1 °C 3.2 °C 1022.6 hPa NW 4.8 km/h 11.3 km/h 94 % 0.0 mm 0 W/m2
02:30 4.1 °C 3.3 °C 1022.6 hPa NW 8.0 km/h 14.5 km/h 95 % 0.0 mm 0 W/m2
02:35 4.1 °C 3.3 °C 1022.6 hPa NNW 12.9 km/h 14.5 km/h 95 % 0.0 mm 0 W/m2
02:40 4.1 °C 3.4 °C 1022.9 hPa NNW 6.4 km/h 17.7 km/h 95 % 0.3 mm 0 W/m2
02:45 4.2 °C 3.4 °C 1022.9 hPa NNW 8.0 km/h 19.3 km/h 95 % 0.3 mm 0 W/m2
02:50 4.2 °C 3.4 °C 1022.6 hPa NW 3.2 km/h 19.3 km/h 95 % 0.3 mm 0 W/m2
02:55 4.1 °C 3.2 °C 1022.9 hPa NW 4.8 km/h 12.9 km/h 94 % 0.3 mm 0 W/m2
03:00 4.1 °C 3.4 °C 1022.9 hPa NW 6.4 km/h 14.5 km/h 95 % 0.3 mm 0 W/m2
03:05 4.2 °C 3.4 °C 1022.9 hPa NNW 6.4 km/h 14.5 km/h 95 % 0.3 mm 0 W/m2
03:10 4.1 °C 3.4 °C 1022.9 hPa NW 4.8 km/h 16.1 km/h 95 % 0.3 mm 0 W/m2
03:15 4.2 °C 3.5 °C 1022.9 hPa NNW 4.8 km/h 16.1 km/h 95 % 0.3 mm 0 W/m2
03:20 4.2 °C 3.3 °C 1022.9 hPa NNW 6.4 km/h 14.5 km/h 94 % 0.3 mm 0 W/m2
03:25 4.2 °C 3.4 °C 1022.9 hPa NW 6.4 km/h 12.9 km/h 95 % 0.3 mm 0 W/m2
03:30 4.2 °C 3.5 °C 1022.9 hPa NNW 8.0 km/h 17.7 km/h 95 % 0.3 mm 0 W/m2
03:35 4.2 °C 3.4 °C 1022.9 hPa NW 3.2 km/h 17.7 km/h 95 % 0.3 mm 0 W/m2
03:40 4.1 °C 3.4 °C 1022.9 hPa NNW 8.0 km/h 14.5 km/h 95 % 0.0 mm 0 W/m2
03:45 4.1 °C 3.3 °C 1022.9 hPa NW 3.2 km/h 17.7 km/h 95 % 0.0 mm 0 W/m2
03:50 4.0 °C 3.3 °C 1023.2 hPa NNW 8.0 km/h 17.7 km/h 95 % 0.0 mm 0 W/m2
03:55 4.1 °C 3.3 °C 1022.9 hPa NNW 8.0 km/h 19.3 km/h 95 % 0.0 mm 0 W/m2
04:00 4.0 °C 3.3 °C 1022.9 hPa NW 4.8 km/h 19.3 km/h 95 % 0.0 mm 0 W/m2
04:05 3.9 °C 3.2 °C 1022.9 hPa NNW 1.6 km/h 19.3 km/h 95 % 0.0 mm 0 W/m2
04:10 3.9 °C 3.2 °C 1022.9 hPa NW 4.8 km/h 19.3 km/h 95 % 0.0 mm 0 W/m2
04:20 4.0 °C 3.3 °C 1023.2 hPa NNW 3.2 km/h 17.7 km/h 95 % 0.0 mm 0 W/m2
04:25 3.9 °C 3.2 °C 1023.2 hPa NNE 8.0 km/h 12.9 km/h 95 % 0.0 mm 0 W/m2
04:30 3.8 °C 3.1 °C 1023.2 hPa NW 4.8 km/h 22.5 km/h 95 % 0.0 mm 0 W/m2
04:35 3.8 °C 3.1 °C 1023.2 hPa NNW 9.7 km/h 22.5 km/h 95 % 0.0 mm 0 W/m2
04:40 3.9 °C 3.2 °C 1023.2 hPa NNW 12.9 km/h 17.7 km/h 95 % 0.0 mm 0 W/m2
04:45 3.9 °C 3.2 °C 1023.2 hPa NW 9.7 km/h 19.3 km/h 95 % 0.0 mm 0 W/m2
04:50 3.9 °C 3.2 °C 1023.2 hPa North 6.4 km/h 19.3 km/h 95 % 0.0 mm 0 W/m2
04:55 3.8 °C 3.1 °C 1023.2 hPa NNW 8.0 km/h 16.1 km/h 95 % 0.0 mm 0 W/m2
05:00 3.8 °C 3.1 °C 1023.2 hPa North 6.4 km/h 16.1 km/h 95 % 0.0 mm 0 W/m2
05:05 3.8 °C 3.1 °C 1023.2 hPa NW 4.8 km/h 14.5 km/h 95 % 0.0 mm 0 W/m2
05:10 3.7 °C 3.0 °C 1023.2 hPa NW 9.7 km/h 14.5 km/h 95 % 0.0 mm 0 W/m2
05:15 3.7 °C 2.9 °C 1023.6 hPa NW 6.4 km/h 12.9 km/h 95 % 0.0 mm 0 W/m2
05:20 3.7 °C 2.9 °C 1023.6 hPa NW 4.8 km/h 12.9 km/h 95 % 0.0 mm 0 W/m2
05:25 3.6 °C 2.8 °C 1023.6 hPa NNW 11.3 km/h 16.1 km/h 95 % 0.0 mm 0 W/m2
05:30 3.5 °C 2.8 °C 1023.9 hPa NW 6.4 km/h 16.1 km/h 95 % 0.0 mm 0 W/m2
05:35 3.5 °C 2.8 °C 1023.9 hPa NW 3.2 km/h 11.3 km/h 95 % 0.0 mm 0 W/m2
05:40 3.6 °C 2.8 °C 1023.9 hPa WNW 8.0 km/h 11.3 km/h 95 % 0.0 mm 0 W/m2
05:45 3.6 °C 2.8 °C 1023.9 hPa NW 8.0 km/h 12.9 km/h 95 % 0.0 mm 0 W/m2
05:50 3.6 °C 2.9 °C 1023.9 hPa NNW 6.4 km/h 14.5 km/h 95 % 0.0 mm 0 W/m2
05:55 3.6 °C 2.8 °C 1024.3 hPa WNW 9.7 km/h 14.5 km/h 95 % 0.0 mm 0 W/m2
06:00 3.6 °C 2.8 °C 1024.3 hPa NW 12.9 km/h 14.5 km/h 95 % 0.0 mm 0 W/m2
06:05 3.6 °C 2.8 °C 1024.3 hPa WNW 6.4 km/h 16.1 km/h 95 % 0.0 mm 0 W/m2
06:10 3.6 °C 2.8 °C 1024.3 hPa NNW 4.8 km/h 16.1 km/h 95 % 0.0 mm 0 W/m2
06:15 3.6 °C 2.8 °C 1024.3 hPa NNW 3.2 km/h 14.5 km/h 95 % 0.0 mm 0 W/m2
06:20 3.5 °C 2.8 °C 1024.3 hPa NNW 4.8 km/h 12.9 km/h 95 % 0.0 mm 0 W/m2
06:25 3.4 °C 2.7 °C 1024.3 hPa NW 6.4 km/h 12.9 km/h 95 % 0.0 mm 0 W/m2
06:30 3.5 °C 2.8 °C 1024.3 hPa WNW 6.4 km/h 12.9 km/h 95 % 0.0 mm 0 W/m2
06:35 3.5 °C 2.8 °C 1024.3 hPa NW 4.8 km/h 12.9 km/h 95 % 0.0 mm 0 W/m2
06:40 3.4 °C 2.7 °C 1024.6 hPa NW 4.8 km/h 12.9 km/h 95 % 0.0 mm 0 W/m2
06:45 3.4 °C 2.7 °C 1024.3 hPa NNW 8.0 km/h 12.9 km/h 95 % 0.0 mm 0 W/m2
06:50 3.4 °C 2.7 °C 1024.6 hPa NW 6.4 km/h 16.1 km/h 95 % 0.0 mm 0 W/m2
06:55 3.4 °C 2.7 °C 1024.6 hPa WNW 9.7 km/h 16.1 km/h 95 % 0.0 mm 0 W/m2
07:00 3.4 °C 2.7 °C 1024.6 hPa NNW 8.0 km/h 12.9 km/h 95 % 0.0 mm 0 W/m2
07:05 3.4 °C 2.7 °C 1024.9 hPa NNW 4.8 km/h 16.1 km/h 95 % 0.0 mm 0 W/m2
07:10 3.4 °C 2.7 °C 1024.9 hPa NNW 8.0 km/h 16.1 km/h 95 % 0.0 mm 0 W/m2
07:15 3.4 °C 2.7 °C 1024.9 hPa NNW 4.8 km/h 14.5 km/h 95 % 0.0 mm 0 W/m2
07:20 3.4 °C 2.7 °C 1024.9 hPa WNW 3.2 km/h 16.1 km/h 95 % 0.0 mm 0 W/m2
07:25 3.4 °C 2.7 °C 1025.3 hPa NNW 4.8 km/h 16.1 km/h 95 % 0.0 mm 0 W/m2
07:30 3.4 °C 2.7 °C 1025.3 hPa NNE 4.8 km/h 16.1 km/h 95 % 0.0 mm 0 W/m2
07:35 3.4 °C 2.7 °C 1025.3 hPa NNW 4.8 km/h 16.1 km/h 95 % 0.0 mm 0 W/m2
07:40 3.4 °C 2.7 °C 1025.3 hPa NNW 8.0 km/h 17.7 km/h 95 % 0.0 mm 0 W/m2
07:45 3.4 °C 2.7 °C 1025.3 hPa North 11.3 km/h 17.7 km/h 95 % 0.0 mm 0 W/m2
07:50 3.4 °C 2.9 °C 1025.3 hPa NNW 6.4 km/h 14.5 km/h 96 % 0.0 mm 0 W/m2
07:55 3.4 °C 2.7 °C 1025.6 hPa NNW 8.0 km/h 19.3 km/h 95 % 0.0 mm 0 W/m2
08:00 3.4 °C 2.7 °C 1025.6 hPa NNW 3.2 km/h 19.3 km/h 95 % 0.0 mm 0 W/m2
08:05 3.4 °C 2.8 °C 1025.6 hPa NW 8.0 km/h 14.5 km/h 96 % 0.0 mm 0 W/m2
08:10 3.4 °C 2.8 °C 1025.6 hPa NW 6.4 km/h 12.9 km/h 96 % 0.0 mm 0 W/m2
08:15 3.4 °C 2.7 °C 1025.6 hPa NW 8.0 km/h 16.1 km/h 95 % 0.0 mm 0 W/m2
08:20 3.4 °C 2.7 °C 1026.0 hPa NNW 4.8 km/h 16.1 km/h 95 % 0.0 mm 0 W/m2
08:25 3.4 °C 2.7 °C 1026.0 hPa North 3.2 km/h 14.5 km/h 95 % 0.0 mm 0 W/m2
08:30 3.3 °C 2.6 °C 1026.0 hPa NW 11.3 km/h 14.5 km/h 95 % 0.0 mm 5 W/m2
08:35 3.3 °C 2.6 °C 1026.0 hPa North 6.4 km/h 16.1 km/h 95 % 0.0 mm 7 W/m2
08:40 3.3 °C 2.6 °C 1026.0 hPa WNW 11.3 km/h 16.1 km/h 95 % 0.0 mm 11 W/m2
08:45 3.3 °C 2.6 °C 1026.0 hPa NW 3.2 km/h 14.5 km/h 95 % 0.0 mm 12 W/m2
08:50 3.3 °C 2.6 °C 1026.0 hPa NW 3.2 km/h 14.5 km/h 95 % 0.0 mm 16 W/m2
08:55 3.3 °C 2.6 °C 1026.3 hPa NNW 4.8 km/h 14.5 km/h 95 % 0.0 mm 18 W/m2
09:00 3.3 °C 2.7 °C 1026.3 hPa NNW 6.4 km/h 14.5 km/h 96 % 0.0 mm 19 W/m2
09:05 3.3 °C 2.8 °C 1026.3 hPa NW 8.0 km/h 14.5 km/h 96 % 0.0 mm 21 W/m2
09:10 3.3 °C 2.7 °C 1026.3 hPa NW 1.6 km/h 12.9 km/h 96 % 0.0 mm 19 W/m2
09:15 3.3 °C 2.8 °C 1026.3 hPa NNW 4.8 km/h 11.3 km/h 96 % 0.0 mm 21 W/m2
09:20 3.3 °C 2.8 °C 1026.0 hPa NW 3.2 km/h 9.7 km/h 96 % 0.0 mm 25 W/m2
09:25 3.3 °C 2.8 °C 1026.3 hPa North 6.4 km/h 9.7 km/h 96 % 0.0 mm 26 W/m2
09:30 3.4 °C 2.8 °C 1026.3 hPa NNW 6.4 km/h 9.7 km/h 96 % 0.0 mm 26 W/m2
09:35 3.4 °C 2.8 °C 1026.3 hPa NNW 9.7 km/h 11.3 km/h 96 % 0.0 mm 28 W/m2
09:40 3.4 °C 2.9 °C 1026.3 hPa Calm   11.3 km/h 96 % 0.0 mm 30 W/m2
09:45 3.5 °C 2.9 °C 1026.3 hPa NW 8.0 km/h 11.3 km/h 96 % 0.0 mm 32 W/m2
09:50 3.6 °C 3.0 °C 1026.3 hPa NNW 6.4 km/h 11.3 km/h 96 % 0.0 mm 33 W/m2
09:55 3.7 °C 3.1 °C 1026.3 hPa NNW 4.8 km/h 12.9 km/h 96 % 0.0 mm 33 W/m2
10:00 3.7 °C 3.1 °C 1026.3 hPa NNW 4.8 km/h 12.9 km/h 96 % 0.0 mm 33 W/m2
10:05 3.8 °C 3.3 °C 1026.3 hPa NW 1.6 km/h 11.3 km/h 96 % 0.0 mm 35 W/m2
10:10 4.2 °C 3.8 °C 1026.6 hPa NNW 11.3 km/h 12.9 km/h 97 % 0.0 mm 163 W/m2
10:15 4.8 °C 4.2 °C 1026.6 hPa NNW 8.0 km/h 14.5 km/h 96 % 0.0 mm 229 W/m2
10:20 5.1 °C 4.3 °C 1026.6 hPa NNW 11.3 km/h 14.5 km/h 95 % 0.0 mm 243 W/m2
10:25 5.4 °C 4.7 °C 1026.6 hPa NW 6.4 km/h 16.1 km/h 95 % 0.0 mm 257 W/m2
10:30 5.8 °C 4.9 °C 1026.6 hPa NW 8.0 km/h 16.1 km/h 94 % 0.0 mm 269 W/m2
10:35 6.0 °C 5.0 °C 1026.6 hPa NNW 8.0 km/h 14.5 km/h 93 % 0.0 mm 279 W/m2
10:40 6.4 °C 5.3 °C 1026.6 hPa NNW 3.2 km/h 14.5 km/h 93 % 0.0 mm 288 W/m2
10:45 6.6 °C 5.4 °C 1026.6 hPa NW 1.6 km/h 14.5 km/h 92 % 0.0 mm 299 W/m2
10:50 6.7 °C 5.5 °C 1026.6 hPa North 16.1 km/h 16.1 km/h 92 % 0.0 mm 309 W/m2
10:55 6.8 °C 5.5 °C 1027.0 hPa North 11.3 km/h 17.7 km/h 91 % 0.0 mm 318 W/m2
11:00 7.2 °C 5.6 °C 1027.0 hPa NW 6.4 km/h 17.7 km/h 90 % 0.0 mm 325 W/m2
11:05 7.4 °C 5.7 °C 1027.0 hPa North 12.9 km/h 16.1 km/h 89 % 0.0 mm 334 W/m2
11:10 7.8 °C 6.1 °C 1027.0 hPa NNW 6.4 km/h 16.1 km/h 89 % 0.0 mm 345 W/m2
11:15 8.1 °C 6.2 °C 1027.0 hPa WNW 6.4 km/h 14.5 km/h 88 % 0.0 mm 352 W/m2
11:20 8.2 °C 6.4 °C 1027.0 hPa NW 12.9 km/h 16.1 km/h 88 % 0.0 mm 359 W/m2
11:25 8.4 °C 6.4 °C 1027.0 hPa NNW 14.5 km/h 16.1 km/h 87 % 0.0 mm 366 W/m2
11:30 8.4 °C 6.1 °C 1027.0 hPa NW 4.8 km/h 17.7 km/h 85 % 0.0 mm 376 W/m2
11:35 8.7 °C 6.3 °C 1027.0 hPa WNW 6.4 km/h 17.7 km/h 85 % 0.0 mm 385 W/m2
11:40 8.9 °C 6.7 °C 1027.0 hPa NNW 14.5 km/h 16.1 km/h 86 % 0.0 mm 394 W/m2
11:45 8.8 °C 6.1 °C 1027.0 hPa NW 8.0 km/h 20.9 km/h 83 % 0.0 mm 399 W/m2
11:50 9.2 °C 6.6 °C 1027.0 hPa North 11.3 km/h 20.9 km/h 84 % 0.0 mm 406 W/m2
11:55 9.4 °C 6.7 °C 1027.3 hPa NW 8.0 km/h 17.7 km/h 83 % 0.0 mm 413 W/m2
12:00 9.4 °C 6.7 °C 1027.0 hPa NW 3.2 km/h 16.1 km/h 83 % 0.0 mm 413 W/m2
12:05 9.4 °C 6.5 °C 1027.3 hPa NNW 3.2 km/h 17.7 km/h 82 % 0.0 mm 427 W/m2
12:10 9.7 °C 6.7 °C 1027.3 hPa NW 11.3 km/h 17.7 km/h 82 % 0.0 mm 446 W/m2
12:15 9.7 °C 6.8 °C 1027.3 hPa WNW 8.0 km/h 19.3 km/h 82 % 0.0 mm 455 W/m2
12:20 10.0 °C 7.2 °C 1027.3 hPa NNE 6.4 km/h 19.3 km/h 83 % 0.0 mm 497 W/m2
12:25 10.1 °C 6.9 °C 1027.3 hPa WNW 9.7 km/h 19.3 km/h 81 % 0.0 mm 410 W/m2
12:30 9.8 °C 6.3 °C 1027.3 hPa North 9.7 km/h 19.3 km/h 79 % 0.0 mm 515 W/m2
12:35 10.1 °C 7.0 °C 1027.3 hPa NW 12.9 km/h 19.3 km/h 81 % 0.0 mm 520 W/m2
12:40 10.3 °C 7.0 °C 1027.3 hPa North 4.8 km/h 16.1 km/h 80 % 0.0 mm 443 W/m2
12:45 10.0 °C 6.7 °C 1027.3 hPa NW 6.4 km/h 17.7 km/h 80 % 0.0 mm 404 W/m2
12:50 10.2 °C 7.1 °C 1027.0 hPa North 9.7 km/h 17.7 km/h 81 % 0.0 mm 501 W/m2
12:55 10.5 °C 6.8 °C 1027.0 hPa NNE 11.3 km/h 16.1 km/h 78 % 0.0 mm 478 W/m2
13:00 10.7 °C 7.4 °C 1027.0 hPa NNW 4.8 km/h 16.1 km/h 80 % 0.0 mm 536 W/m2
13:05 10.9 °C 6.9 °C 1027.3 hPa WNW 6.4 km/h 16.1 km/h 76 % 0.0 mm 679 W/m2
13:10 11.3 °C 7.4 °C 1027.0 hPa WNW 9.7 km/h 17.7 km/h 77 % 0.0 mm 573 W/m2
13:15 10.6 °C 6.9 °C 1027.0 hPa NNW 4.8 km/h 17.7 km/h 78 % 0.0 mm 552 W/m2
13:20 10.6 °C 6.4 °C 1027.0 hPa WNW 6.4 km/h 14.5 km/h 75 % 0.0 mm 207 W/m2
13:25 10.1 °C 6.2 °C 1027.0 hPa NNW 4.8 km/h 14.5 km/h 77 % 0.0 mm 294 W/m2
13:30 10.0 °C 6.5 °C 1027.0 hPa NNE 3.2 km/h 14.5 km/h 79 % 0.0 mm 130 W/m2
13:35 9.6 °C 6.3 °C 1027.0 hPa North 4.8 km/h 14.5 km/h 80 % 0.0 mm 105 W/m2
13:40 9.7 °C 6.7 °C 1027.0 hPa North 11.3 km/h 12.9 km/h 82 % 0.0 mm 613 W/m2
13:45 10.8 °C 6.6 °C 1027.0 hPa North 9.7 km/h 17.7 km/h 75 % 0.0 mm 241 W/m2
13:50 10.2 °C 6.2 °C 1027.0 hPa NW 6.4 km/h 17.7 km/h 76 % 0.0 mm 167 W/m2
13:55 9.9 °C 6.4 °C 1027.0 hPa NNW 8.0 km/h 16.1 km/h 79 % 0.0 mm 271 W/m2
14:00 10.2 °C 6.7 °C 1027.0 hPa North 8.0 km/h 16.1 km/h 79 % 0.0 mm 188 W/m2
14:05 9.9 °C 6.3 °C 1027.0 hPa WNW 4.8 km/h 16.1 km/h 78 % 0.0 mm 207 W/m2
14:10 9.8 °C 6.3 °C 1027.0 hPa NW 8.0 km/h 14.5 km/h 79 % 0.0 mm 209 W/m2
14:15 9.7 °C 6.3 °C 1027.0 hPa NNW 4.8 km/h 16.1 km/h 79 % 0.0 mm 186 W/m2
14:20 9.8 °C 6.5 °C 1027.0 hPa WNW 9.7 km/h 16.1 km/h 80 % 0.0 mm 176 W/m2
14:25 9.7 °C 6.0 °C 1027.0 hPa North 3.2 km/h 14.5 km/h 78 % 0.0 mm 165 W/m2
14:30 9.6 °C 6.0 °C 1027.0 hPa NNW 6.4 km/h 14.5 km/h 78 % 0.0 mm 193 W/m2
14:35 9.9 °C 6.4 °C 1027.0 hPa NNW 11.3 km/h 14.5 km/h 79 % 0.0 mm 206 W/m2
14:40 10.1 °C 6.6 °C 1027.0 hPa North 9.7 km/h 12.9 km/h 79 % 0.0 mm 229 W/m2
14:45 9.9 °C 5.7 °C 1026.6 hPa NW 6.4 km/h 14.5 km/h 75 % 0.0 mm 174 W/m2
14:50 9.9 °C 6.7 °C 1026.6 hPa NNW 4.8 km/h 14.5 km/h 80 % 0.0 mm 251 W/m2
14:55 10.4 °C 6.6 °C 1026.6 hPa NNE 11.3 km/h 12.9 km/h 77 % 0.0 mm 369 W/m2
15:00 10.7 °C 6.8 °C 1026.6 hPa WNW 4.8 km/h 12.9 km/h 77 % 0.0 mm 230 W/m2
15:05 10.7 °C 6.9 °C 1026.6 hPa North 4.8 km/h 12.9 km/h 77 % 0.0 mm 309 W/m2
15:10 10.8 °C 6.5 °C 1026.6 hPa NW 4.8 km/h 14.5 km/h 75 % 0.0 mm 149 W/m2
15:15 10.1 °C 6.2 °C 1026.6 hPa NW 4.8 km/h 16.1 km/h 77 % 0.0 mm 158 W/m2
15:20 9.8 °C 6.1 °C 1026.6 hPa North 12.9 km/h 16.1 km/h 78 % 0.0 mm 142 W/m2
15:25 9.7 °C 5.8 °C 1026.6 hPa NNW 6.4 km/h 19.3 km/h 77 % 0.0 mm 132 W/m2
15:30 9.5 °C 5.9 °C 1026.6 hPa NW 8.0 km/h 19.3 km/h 78 % 0.0 mm 114 W/m2
15:40 9.1 °C 5.8 °C 1026.6 hPa NW 6.4 km/h 14.5 km/h 80 % 0.0 mm 183 W/m2
15:45 9.7 °C 6.8 °C 1026.6 hPa North 6.4 km/h 14.5 km/h 82 % 0.0 mm 480 W/m2
15:50 10.9 °C 7.4 °C 1026.6 hPa NNW 9.7 km/h 14.5 km/h 79 % 0.0 mm 457 W/m2
15:55 10.7 °C 7.0 °C 1027.0 hPa North 6.4 km/h 16.1 km/h 78 % 0.0 mm 153 W/m2
16:00 10.0 °C 6.3 °C 1027.0 hPa NW 4.8 km/h 16.1 km/h 78 % 0.0 mm 178 W/m2
16:05 9.8 °C 6.4 °C 1026.6 hPa North 9.7 km/h 16.1 km/h 79 % 0.0 mm 186 W/m2
16:10 9.8 °C 6.0 °C 1026.6 hPa NNE 8.0 km/h 16.1 km/h 77 % 0.0 mm 127 W/m2
16:15 9.8 °C 6.1 °C 1026.6 hPa NNW 11.3 km/h 14.5 km/h 78 % 0.0 mm 81 W/m2
16:25 9.5 °C 5.9 °C 1026.6 hPa NNW 3.2 km/h 11.3 km/h 78 % 0.0 mm 90 W/m2
16:30 9.5 °C 5.9 °C 1026.6 hPa NNE 11.3 km/h 20.9 km/h 78 % 0.0 mm 93 W/m2
16:35 9.4 °C 5.2 °C 1027.0 hPa NNW 6.4 km/h 22.5 km/h 75 % 0.0 mm 105 W/m2
16:40 9.4 °C 5.2 °C 1026.6 hPa NNW 11.3 km/h 22.5 km/h 75 % 0.0 mm 144 W/m2
16:45 9.3 °C 5.3 °C 1027.0 hPa NNE 14.5 km/h 19.3 km/h 76 % 0.0 mm 58 W/m2
16:50 9.1 °C 4.9 °C 1026.6 hPa North 8.0 km/h 19.3 km/h 75 % 0.0 mm 142 W/m2
16:55 9.2 °C 4.8 °C 1027.0 hPa NNE 6.4 km/h 19.3 km/h 74 % 0.0 mm 76 W/m2
17:00 9.2 °C 4.8 °C 1026.6 hPa NNE 11.3 km/h 16.1 km/h 74 % 0.0 mm 58 W/m2
17:05 9.3 °C 5.3 °C 1026.6 hPa North 1.6 km/h 16.1 km/h 76 % 0.0 mm 76 W/m2
17:10 9.4 °C 5.7 °C 1026.6 hPa NW 9.7 km/h 16.1 km/h 78 % 0.0 mm 116 W/m2
17:15 9.6 °C 5.7 °C 1027.0 hPa NW 12.9 km/h 16.1 km/h 77 % 0.0 mm 102 W/m2
17:20 9.7 °C 6.0 °C 1027.0 hPa North 8.0 km/h 16.1 km/h 78 % 0.0 mm 81 W/m2
17:25 9.7 °C 6.0 °C 1027.0 hPa NNE 3.2 km/h 16.1 km/h 78 % 0.0 mm 76 W/m2
17:30 9.6 °C 5.6 °C 1027.0 hPa NNW 8.0 km/h 16.1 km/h 76 % 0.0 mm 51 W/m2
17:35 9.3 °C 5.5 °C 1027.0 hPa NNE 4.8 km/h 16.1 km/h 77 % 0.0 mm 49 W/m2
17:40 9.1 °C 5.8 °C 1027.0 hPa NE 6.4 km/h 16.1 km/h 80 % 0.0 mm 32 W/m2
17:45 8.8 °C 5.3 °C 1027.0 hPa NNE 4.8 km/h 12.9 km/h 79 % 0.0 mm 35 W/m2
17:50 8.6 °C 5.1 °C 1027.0 hPa NNW 4.8 km/h 12.9 km/h 79 % 0.0 mm 21 W/m2
17:55 8.3 °C 4.8 °C 1027.0 hPa NNE 11.3 km/h 12.9 km/h 79 % 0.0 mm 19 W/m2
18:00 7.9 °C 4.6 °C 1027.0 hPa North 8.0 km/h 11.3 km/h 80 % 0.0 mm 16 W/m2
18:05 7.5 °C 4.4 °C 1027.0 hPa NNE 9.7 km/h 11.3 km/h 81 % 0.0 mm 14 W/m2
18:10 7.4 °C 4.3 °C 1027.0 hPa NNW 6.4 km/h 9.7 km/h 81 % 0.0 mm 11 W/m2
18:15 7.2 °C 4.2 °C 1027.0 hPa North 4.8 km/h 11.3 km/h 81 % 0.0 mm 5 W/m2
18:20 6.9 °C 3.9 °C 1027.3 hPa NNW 3.2 km/h 11.3 km/h 81 % 0.0 mm 0 W/m2
18:25 6.7 °C 3.8 °C 1027.3 hPa North 8.0 km/h 9.7 km/h 82 % 0.0 mm 0 W/m2
18:30 6.7 °C 3.9 °C 1027.3 hPa NNE 3.2 km/h 9.7 km/h 82 % 0.0 mm 0 W/m2
18:35 6.7 °C 3.9 °C 1027.3 hPa North 4.8 km/h 8.0 km/h 82 % 0.0 mm 0 W/m2
18:40 6.8 °C 3.8 °C 1027.3 hPa NNE 1.6 km/h 6.4 km/h 81 % 0.0 mm 0 W/m2
18:45 6.8 °C 3.7 °C 1027.3 hPa Calm   6.4 km/h 81 % 0.0 mm 0 W/m2
18:50 6.1 °C 3.4 °C 1027.3 hPa Calm   6.4 km/h 83 % 0.0 mm 0 W/m2
18:55 5.6 °C 3.3 °C 1027.3 hPa NNE 1.6 km/h 3.2 km/h 85 % 0.0 mm 0 W/m2
19:00 5.1 °C 3.1 °C 1027.3 hPa Calm   3.2 km/h 87 % 0.0 mm 0 W/m2
19:05 4.9 °C 3.0 °C 1027.7 hPa Calm   3.2 km/h 87 % 0.0 mm 0 W/m2
19:10 4.7 °C 2.8 °C 1027.7 hPa Calm   3.2 km/h 88 % 0.0 mm 0 W/m2
19:15 4.4 °C 2.7 °C 1027.7 hPa Calm   3.2 km/h 89 % 0.0 mm 0 W/m2
19:20 4.2 °C 2.5 °C 1027.7 hPa Calm   3.2 km/h 89 % 0.0 mm 0 W/m2
19:25 3.9 °C 2.4 °C 1027.7 hPa Calm   3.2 km/h 90 % 0.0 mm 0 W/m2
19:30 3.8 °C 2.4 °C 1027.7 hPa NNE 1.6 km/h 3.2 km/h 91 % 0.0 mm 0 W/m2
19:35 3.8 °C 2.6 °C 1027.7 hPa Calm   3.2 km/h 92 % 0.0 mm 0 W/m2
19:40 3.6 °C 2.4 °C 1027.7 hPa Calm   1.6 km/h 92 % 0.0 mm 0 W/m2
19:45 3.4 °C 2.3 °C 1027.7 hPa Calm   1.6 km/h 92 % 0.0 mm 0 W/m2
19:50 3.2 °C 2.0 °C 1027.7 hPa Calm   1.6 km/h 92 % 0.0 mm 0 W/m2
19:55 3.1 °C 1.9 °C 1027.7 hPa Calm   1.6 km/h 92 % 0.0 mm 0 W/m2
20:00 3.1 °C 2.0 °C 1027.7 hPa Calm     93 % 0.0 mm 0 W/m2
20:05 2.9 °C 1.9 °C 1027.7 hPa Calm   1.6 km/h 93 % 0.0 mm 0 W/m2
20:15 2.6 °C 1.6 °C 1028.0 hPa Calm   3.2 km/h 93 % 0.0 mm 0 W/m2
20:20 2.4 °C 1.5 °C 1028.0 hPa Calm   1.6 km/h 94 % 0.0 mm 0 W/m2
20:25 2.4 °C 1.5 °C 1028.0 hPa Calm   1.6 km/h 94 % 0.0 mm 0 W/m2
20:30 2.4 °C 1.6 °C 1028.0 hPa Calm   1.6 km/h 94 % 0.0 mm 0 W/m2
20:35 2.4 °C 1.6 °C 1028.0 hPa Calm   1.6 km/h 94 % 0.0 mm 0 W/m2
20:40 2.6 °C 1.7 °C 1028.0 hPa Calm     94 % 0.0 mm 0 W/m2
20:45 2.3 °C 1.5 °C 1028.0 hPa Calm     94 % 0.0 mm 0 W/m2
20:50 2.3 °C 1.4 °C 1028.0 hPa Calm     94 % 0.0 mm 0 W/m2
20:55 2.1 °C 1.2 °C 1028.0 hPa Calm   1.6 km/h 94 % 0.0 mm 0 W/m2
21:00 2.1 °C 1.3 °C 1028.0 hPa Calm   1.6 km/h 95 % 0.0 mm 0 W/m2
21:05 1.9 °C 1.2 °C 1028.0 hPa Calm   1.6 km/h 95 % 0.0 mm 0 W/m2
21:10 1.8 °C 1.1 °C 1028.0 hPa Calm   1.6 km/h 95 % 0.0 mm 0 W/m2
21:15 1.6 °C 0.9 °C 1028.0 hPa Calm   1.6 km/h 95 % 0.0 mm 0 W/m2
21:20 1.4 °C 0.7 °C 1028.0 hPa Calm     95 % 0.0 mm 0 W/m2
21:25 1.4 °C 0.7 °C 1028.0 hPa Calm     95 % 0.0 mm 0 W/m2
21:30 1.6 °C 0.8 °C 1028.0 hPa Calm     95 % 0.0 mm 0 W/m2
21:35 1.7 °C 1.0 °C 1028.0 hPa Calm     95 % 0.0 mm 0 W/m2
21:40 1.6 °C 0.8 °C 1028.0 hPa Calm   1.6 km/h 95 % 0.0 mm 0 W/m2
21:45 1.4 °C 0.7 °C 1028.0 hPa NNE 4.8 km/h 4.8 km/h 95 % 0.0 mm 0 W/m2
21:50 1.3 °C 0.6 °C 1028.0 hPa Calm   6.4 km/h 95 % 0.0 mm 0 W/m2
21:55 1.2 °C 0.5 °C 1028.0 hPa Calm   6.4 km/h 95 % 0.0 mm 0 W/m2
22:00 1.1 °C 0.4 °C 1028.0 hPa Calm   3.2 km/h 95 % 0.0 mm 0 W/m2
22:05 0.9 °C 0.2 °C 1028.0 hPa Calm   3.2 km/h 95 % 0.0 mm 0 W/m2
22:10 0.8 °C 0.1 °C 1028.0 hPa Calm   4.8 km/h 95 % 0.0 mm 0 W/m2
22:15 0.9 °C 0.4 °C 1028.0 hPa Calm   4.8 km/h 96 % 0.0 mm 0 W/m2
22:20 0.9 °C 0.4 °C 1028.0 hPa North 1.6 km/h 3.2 km/h 96 % 0.0 mm 0 W/m2
22:25 0.9 °C 0.2 °C 1028.0 hPa North 1.6 km/h 3.2 km/h 95 % 0.0 mm 0 W/m2
22:30 0.8 °C 0.1 °C 1028.0 hPa North 1.6 km/h 3.2 km/h 95 % 0.0 mm 0 W/m2
22:35 0.7 °C 0.2 °C 1028.0 hPa North 3.2 km/h 6.4 km/h 96 % 0.0 mm 0 W/m2
22:40 0.7 °C 0.2 °C 1028.0 hPa Calm   9.7 km/h 96 % 0.0 mm 0 W/m2
22:45 0.9 °C 0.4 °C 1028.0 hPa NNE 4.8 km/h 9.7 km/h 96 % 0.0 mm 0 W/m2
22:50 1.0 °C 0.4 °C 1028.0 hPa NNE 3.2 km/h 8.0 km/h 96 % 0.0 mm 0 W/m2
22:55 1.1 °C 0.5 °C 1028.0 hPa NNE 4.8 km/h 6.4 km/h 96 % 0.0 mm 0 W/m2
23:00 1.4 °C 1.0 °C 1028.0 hPa Calm   4.8 km/h 97 % 0.0 mm 0 W/m2
23:05 1.7 °C 1.1 °C 1028.0 hPa NNE 1.6 km/h 4.8 km/h 96 % 0.0 mm 0 W/m2
23:10 1.7 °C 1.2 °C 1028.0 hPa Calm   3.2 km/h 96 % 0.0 mm 0 W/m2
23:15 1.8 °C 1.3 °C 1028.0 hPa Calm   3.2 km/h 96 % 0.0 mm 0 W/m2
23:20 1.6 °C 1.0 °C 1028.0 hPa Calm     96 % 0.0 mm 0 W/m2
23:25 1.2 °C 0.7 °C 1028.0 hPa Calm   1.6 km/h 96 % 0.0 mm 0 W/m2
23:30 0.9 °C 0.4 °C 1027.7 hPa Calm   1.6 km/h 96 % 0.0 mm 0 W/m2
23:35 0.9 °C 0.3 °C 1027.7 hPa Calm   1.6 km/h 96 % 0.0 mm 0 W/m2
23:40 0.9 °C 0.3 °C 1027.7 hPa Calm     96 % 0.0 mm 0 W/m2
23:45 0.8 °C 0.2 °C 1027.7 hPa Calm     96 % 0.0 mm 0 W/m2
23:50 0.8 °C 0.3 °C 1027.7 hPa Calm     96 % 0.0 mm 0 W/m2
23:55 0.7 °C 0.1 °C 1027.7 hPa Calm     96 % 0.0 mm 0 W/m2
Avec l'autorisation de Weather Underground - 1.75 mb